createdAt,value
2019-04-16T00:02:45.608Z,58.51
2019-04-16T00:05:36.078Z,58.34
2019-04-16T00:08:27.277Z,58.23
2019-04-16T00:10:49.603Z,58.25
2019-04-16T00:13:30.813Z,58.35
2019-04-16T00:16:01.835Z,58.22
2019-04-16T00:18:32.515Z,58.10
2019-04-16T00:21:21.032Z,58.19
2019-04-16T00:24:19.746Z,58.21
2019-04-16T00:26:58.008Z,58.26
2019-04-16T00:29:27.470Z,58.91
2019-04-16T00:32:02.082Z,58.43
2019-04-16T00:34:32.938Z,58.39
2019-04-16T00:37:04.425Z,58.33
2019-04-16T00:39:35.355Z,58.47
2019-04-16T00:42:06.941Z,58.68
2019-04-16T00:44:37.470Z,58.69
2019-04-16T00:47:08.771Z,58.85
2019-04-16T00:49:39.335Z,58.72
2019-04-16T00:52:10.136Z,58.92
2019-04-16T00:54:42.377Z,58.82
2019-04-16T00:57:17.711Z,59.04
2019-04-16T00:59:45.958Z,58.78
2019-04-16T01:02:17.052Z,58.68
2019-04-16T01:04:48.006Z,58.77
2019-04-16T01:07:18.705Z,58.63
2019-04-16T01:09:50.689Z,58.59
2019-04-16T01:12:22.549Z,58.64
2019-04-16T01:14:56.403Z,58.69
2019-04-16T01:17:26.225Z,59.38
2019-04-16T01:19:56.934Z,59.17
2019-04-16T01:22:27.640Z,59.09
2019-04-16T01:24:58.233Z,58.53
2019-04-16T01:27:36.151Z,58.43
2019-04-16T01:30:07.421Z,58.82
2019-04-16T01:32:55.420Z,58.21
2019-04-16T01:35:38.636Z,58.33
2019-04-16T01:38:30.178Z,58.00
2019-04-16T01:41:05.523Z,58.25
2019-04-16T01:43:36.336Z,58.32
2019-04-16T01:46:07.459Z,58.41
2019-04-16T01:48:39.002Z,58.91
2019-04-16T01:51:12.635Z,58.75
2019-04-16T01:53:42.882Z,58.80
2019-04-16T01:56:13.909Z,58.46
2019-04-16T01:58:44.699Z,58.54
2019-04-16T02:01:15.988Z,58.54
2019-04-16T02:03:48.883Z,58.75
2019-04-16T02:06:20.385Z,58.82
2019-04-16T02:08:51.029Z,58.95
2019-04-16T02:11:22.900Z,58.58
2019-04-16T02:13:53.568Z,58.36
2019-04-16T02:16:25.212Z,58.34
2019-04-16T02:19:00.805Z,58.48
2019-04-16T02:21:29.215Z,58.60
2019-04-16T02:24:01.192Z,58.36
2019-04-16T02:26:31.920Z,58.29
2019-04-16T02:29:02.673Z,58.21
2019-04-16T02:31:33.407Z,58.57
2019-04-16T02:34:04.830Z,58.94
2019-04-16T02:36:36.600Z,58.68
2019-04-16T02:39:09.961Z,58.69
2019-04-16T02:41:40.639Z,58.88
2019-04-16T02:44:16.291Z,58.94
2019-04-16T02:46:46.764Z,58.80
2019-04-16T02:49:23.164Z,59.05
2019-04-16T02:52:05.190Z,59.30
2019-04-16T02:54:41.923Z,59.66
2019-04-16T02:57:30.359Z,59.84
2019-04-16T03:00:04.529Z,59.73
2019-04-16T03:02:48.302Z,59.92
2019-04-16T03:05:31.183Z,60.10
2019-04-16T03:08:04.986Z,59.96
2019-04-16T03:10:35.127Z,59.84
2019-04-16T03:13:06.003Z,59.82
2019-04-16T03:16:02.824Z,59.34
2019-04-16T03:18:48.046Z,59.63
2019-04-16T03:21:19.226Z,59.68
2019-04-16T03:23:50.075Z,59.70
2019-04-16T03:26:21.087Z,59.75
2019-04-16T03:28:51.937Z,59.59
2019-04-16T03:31:23.677Z,59.57
2019-04-16T03:33:54.690Z,59.97
2019-04-16T03:36:26.503Z,59.43
2019-04-16T03:38:57.918Z,59.23
2019-04-16T03:41:28.669Z,58.93
2019-04-16T03:44:03.666Z,58.31
2019-04-16T03:46:32.086Z,58.05
2019-04-16T03:49:02.928Z,57.29
2019-04-16T03:51:35.634Z,56.42
2019-04-16T03:54:06.339Z,55.77
2019-04-16T03:56:36.976Z,55.22
2019-04-16T03:59:10.867Z,54.66
2019-04-16T04:01:40.212Z,54.14
2019-04-16T04:04:10.977Z,53.01
2019-04-16T04:06:42.074Z,51.66
2019-04-16T04:09:12.839Z,49.64
2019-04-16T04:11:43.663Z,49.64
2019-04-16T04:14:14.319Z,47.39
2019-04-16T04:16:45.289Z,46.64
2019-04-16T04:19:16.198Z,45.50
2019-04-16T04:21:47.208Z,44.59
2019-04-16T04:24:17.969Z,43.86
2019-04-16T04:26:48.895Z,42.26
2019-04-16T04:29:20.696Z,41.78
2019-04-16T04:31:51.912Z,41.69
2019-04-16T04:34:24.078Z,40.59
2019-04-16T04:36:58.871Z,39.17
2019-04-16T04:39:27.654Z,37.99
2019-04-16T04:41:58.983Z,36.67
2019-04-16T04:44:29.752Z,36.84
2019-04-16T04:47:00.569Z,34.78
2019-04-16T04:49:31.205Z,32.56
2019-04-16T04:52:02.213Z,30.64
2019-04-16T04:54:32.952Z,30.26
2019-04-16T04:57:03.757Z,29.56
2019-04-16T04:59:36.759Z,28.51
2019-04-16T05:02:07.162Z,26.87
2019-04-16T05:04:53.250Z,25.95
2019-04-16T05:07:25.671Z,26.93
2019-04-16T05:09:56.973Z,27.97
2019-04-16T05:12:27.797Z,29.18
2019-04-16T05:14:58.884Z,30.91
2019-04-16T05:17:30.850Z,33.11
2019-04-16T05:20:01.670Z,34.39
2019-04-16T05:22:33.083Z,36.25
2019-04-16T05:25:04.175Z,38.57
2019-04-16T05:27:40.276Z,39.51
2019-04-16T05:30:08.234Z,40.05
2019-04-16T05:32:38.764Z,40.82
2019-04-16T05:35:10.805Z,40.47
2019-04-16T05:37:41.958Z,40.68
2019-04-16T05:40:13.414Z,40.21
2019-04-16T05:42:46.279Z,38.77
2019-04-16T05:45:17.534Z,36.03
2019-04-16T05:47:49.032Z,33.59
2019-04-16T05:50:21.888Z,30.81
2019-04-16T05:52:54.210Z,30.07
2019-04-16T05:55:30.468Z,28.91
2019-04-16T05:58:03.134Z,29.49
2019-04-16T06:00:41.676Z,29.08
2019-04-16T06:03:11.736Z,27.44
2019-04-16T06:05:44.575Z,27.47
2019-04-16T06:08:16.614Z,27.11
2019-04-16T06:10:50.857Z,27.73
2019-04-16T06:13:47.948Z,27.68
2019-04-16T06:16:49.482Z,28.06
2019-04-16T06:19:46.465Z,26.02
2019-04-16T06:22:30.065Z,26.72
2019-04-16T06:25:20.406Z,26.98
2019-04-16T06:28:03.185Z,27.42
2019-04-16T06:30:46.217Z,26.52
2019-04-16T06:33:24.927Z,26.53
2019-04-16T06:36:15.124Z,28.07
2019-04-16T06:38:49.857Z,27.53
2019-04-16T06:41:42.012Z,27.32
2019-04-16T06:44:18.996Z,25.90
2019-04-16T06:47:05.281Z,25.86
2019-04-16T06:49:51.189Z,25.91
2019-04-16T06:52:48.965Z,25.07
2019-04-16T06:55:43.055Z,26.96
2019-04-16T06:58:49.845Z,29.12
2019-04-16T07:01:12.377Z,28.28
2019-04-16T07:03:49.625Z,27.39
2019-04-16T07:06:38.289Z,28.23
2019-04-16T07:09:24.650Z,28.79
2019-04-16T07:11:56.540Z,28.87
2019-04-16T07:14:31.477Z,28.47
2019-04-16T07:17:02.296Z,29.42
2019-04-16T07:19:33.000Z,30.33
2019-04-16T07:22:03.840Z,31.53
2019-04-16T07:24:37.031Z,31.71
2019-04-16T07:27:07.688Z,32.07
2019-04-16T07:29:49.707Z,32.45
2019-04-16T07:32:45.287Z,32.53
2019-04-16T07:35:41.109Z,32.88
2019-04-16T07:38:29.374Z,32.79
2019-04-16T07:41:24.582Z,33.92
2019-04-16T07:44:12.957Z,33.72
2019-04-16T07:47:08.522Z,34.55
2019-04-16T07:49:44.917Z,34.90
2019-04-16T07:52:39.018Z,33.66
2019-04-16T07:55:40.928Z,33.95
2019-04-16T07:58:16.602Z,34.46
2019-04-16T08:00:48.578Z,34.64
2019-04-16T08:03:19.187Z,35.12
2019-04-16T08:05:50.841Z,35.62
2019-04-16T08:08:24.398Z,35.89
2019-04-16T08:10:53.938Z,36.30
2019-04-16T08:13:26.429Z,36.49
2019-04-16T08:15:57.567Z,36.75
2019-04-16T08:18:29.527Z,35.98
2019-04-16T08:21:08.985Z,35.53
2019-04-16T08:23:41.782Z,35.31
2019-04-16T08:26:15.205Z,36.10
2019-04-16T08:28:48.559Z,35.03
2019-04-16T08:31:25.292Z,36.17
2019-04-16T08:33:56.083Z,36.63
2019-04-16T08:36:26.822Z,35.79
2019-04-16T08:38:57.655Z,35.12
2019-04-16T08:41:28.433Z,35.79
2019-04-16T08:44:02.557Z,35.11
2019-04-16T08:46:31.736Z,34.62
2019-04-16T08:49:02.603Z,34.64
2019-04-16T08:51:37.041Z,35.12
2019-04-16T08:54:07.907Z,35.15
2019-04-16T08:56:43.172Z,34.62
2019-04-16T08:59:14.542Z,34.76
2019-04-16T09:01:45.234Z,34.77
2019-04-16T09:04:15.753Z,35.60
2019-04-16T09:06:47.335Z,36.66
2019-04-16T09:09:43.007Z,36.60
2019-04-16T09:12:13.828Z,36.15
2019-04-16T09:14:48.010Z,36.63
2019-04-16T09:17:25.067Z,36.12
2019-04-16T09:20:05.154Z,35.30
2019-04-16T09:22:48.349Z,35.69
2019-04-16T09:25:46.705Z,35.93
2019-04-16T09:28:31.119Z,35.47
2019-04-16T09:31:26.000Z,34.85
2019-04-16T09:34:05.305Z,34.13
2019-04-16T09:36:51.348Z,34.47
2019-04-16T09:39:40.905Z,33.94
2019-04-16T09:42:11.479Z,33.52
2019-04-16T09:44:42.073Z,33.52
2019-04-16T09:47:12.695Z,34.01
2019-04-16T09:49:43.649Z,34.72
2019-04-16T09:52:14.052Z,35.82
2019-04-16T09:54:45.291Z,35.67
2019-04-16T09:57:16.093Z,36.26
2019-04-16T09:59:51.340Z,35.27
2019-04-16T10:02:25.261Z,35.42
2019-04-16T10:04:56.210Z,35.10
2019-04-16T10:07:27.152Z,34.76
2019-04-16T10:09:57.762Z,34.96
2019-04-16T10:12:28.489Z,35.85
2019-04-16T10:14:58.951Z,35.58
2019-04-16T10:17:29.377Z,36.17
2019-04-16T10:19:59.981Z,35.91
2019-04-16T10:22:30.449Z,36.05
2019-04-16T10:25:13.513Z,35.66
2019-04-16T10:27:46.408Z,35.62
2019-04-16T10:30:30.438Z,36.03
2019-04-16T10:33:01.266Z,35.76
2019-04-16T10:35:32.471Z,35.89
2019-04-16T10:38:13.614Z,35.88
2019-04-16T10:40:50.386Z,36.37
2019-04-16T10:43:44.944Z,35.87
2019-04-16T10:46:43.056Z,35.37
2019-04-16T10:49:31.635Z,36.54
2019-04-16T10:52:26.172Z,36.37
2019-04-16T10:55:01.921Z,37.97
2019-04-16T10:58:08.954Z,38.15
2019-04-16T11:00:53.356Z,38.18
2019-04-16T11:03:38.519Z,41.05
2019-04-16T11:06:12.750Z,42.03
2019-04-16T11:08:43.634Z,42.09
2019-04-16T11:11:14.178Z,42.33
2019-04-16T11:13:59.168Z,42.91
2019-04-16T11:16:22.858Z,42.39
2019-04-16T11:18:55.120Z,42.54
2019-04-16T11:21:25.374Z,42.86
2019-04-16T11:23:55.827Z,43.06
2019-04-16T11:26:27.777Z,43.72
2019-04-16T11:28:58.500Z,44.37
2019-04-16T11:31:29.545Z,44.29
2019-04-16T11:34:00.254Z,43.63
2019-04-16T11:36:31.821Z,43.56
2019-04-16T11:39:02.636Z,43.55
2019-04-16T11:41:33.229Z,44.07
2019-04-16T11:44:15.267Z,43.18
2019-04-16T11:46:37.017Z,44.77
2019-04-16T11:49:07.520Z,45.02
2019-04-16T11:51:38.562Z,44.95
2019-04-16T11:54:11.467Z,45.19
2019-04-16T11:56:44.496Z,45.17
2019-04-16T11:59:15.240Z,45.80
2019-04-16T12:02:04.787Z,45.59
2019-04-16T12:05:01.319Z,46.03
2019-04-16T12:07:42.830Z,44.50
2019-04-16T12:10:31.917Z,45.31
2019-04-16T12:13:21.397Z,45.64
2019-04-16T12:16:13.787Z,46.29
2019-04-16T12:18:58.999Z,48.26
2019-04-16T12:21:38.320Z,48.93
2019-04-16T12:24:26.788Z,49.29
2019-04-16T12:27:32.773Z,49.43
2019-04-16T12:30:17.003Z,48.53
2019-04-16T12:33:08.808Z,48.89
2019-04-16T12:35:45.309Z,49.55
2019-04-16T12:38:19.610Z,48.97
2019-04-16T12:41:02.473Z,48.80
2019-04-16T12:43:43.949Z,49.74
2019-04-16T12:46:21.432Z,51.07
2019-04-16T12:49:08.957Z,51.15
2019-04-16T12:51:52.196Z,49.94
2019-04-16T12:54:40.505Z,48.46
2019-04-16T12:57:38.734Z,48.90
2019-04-16T13:00:18.813Z,48.53
2019-04-16T13:03:07.746Z,49.44
2019-04-16T13:05:47.045Z,48.28
2019-04-16T13:08:32.613Z,47.81
2019-04-16T13:11:24.841Z,48.72
2019-04-16T13:14:23.085Z,49.70
2019-04-16T13:17:17.611Z,46.88
2019-04-16T13:20:04.825Z,47.45
2019-04-16T13:22:42.383Z,47.78
2019-04-16T13:25:21.683Z,48.02
2019-04-16T13:27:52.948Z,48.42
2019-04-16T13:30:23.392Z,47.92
2019-04-16T13:32:53.773Z,48.18
2019-04-16T13:35:24.673Z,48.52
2019-04-16T13:37:55.904Z,49.09
2019-04-16T13:40:26.594Z,49.10
2019-04-16T13:42:57.218Z,49.72
2019-04-16T13:45:36.231Z,48.10
2019-04-16T13:48:16.525Z,48.59
2019-04-16T13:50:48.979Z,49.35
2019-04-16T13:53:48.857Z,50.25
2019-04-16T13:56:28.893Z,51.06
2019-04-16T13:59:16.770Z,51.51
2019-04-16T14:02:09.098Z,50.68
2019-04-16T14:04:39.856Z,49.02
2019-04-16T14:07:10.559Z,50.00
2019-04-16T14:09:44.186Z,49.31
2019-04-16T14:12:14.830Z,48.99
2019-04-16T14:14:46.746Z,49.38
2019-04-16T14:17:19.527Z,49.17
2019-04-16T14:19:52.808Z,49.96
2019-04-16T14:22:24.672Z,50.49
2019-04-16T14:24:56.727Z,50.43
2019-04-16T14:27:27.622Z,50.75
2019-04-16T14:30:00.569Z,51.67
2019-04-16T14:32:31.195Z,51.70
2019-04-16T14:35:05.239Z,51.32
2019-04-16T14:37:35.906Z,51.75
2019-04-16T14:40:15.927Z,53.41
2019-04-16T14:42:47.153Z,54.13
2019-04-16T14:45:34.751Z,54.50
2019-04-16T14:48:08.009Z,54.32
2019-04-16T14:50:39.486Z,53.79
2019-04-16T14:53:10.325Z,54.40
2019-04-16T14:56:00.495Z,55.23
2019-04-16T14:58:44.010Z,54.79
2019-04-16T15:01:33.250Z,55.42
2019-04-16T15:04:24.395Z,55.93
2019-04-16T15:07:12.725Z,56.39
2019-04-16T15:10:08.271Z,57.30
2019-04-16T15:12:45.662Z,57.33
2019-04-16T15:15:35.355Z,56.96
2019-04-16T15:18:20.325Z,57.89
2019-04-16T15:21:03.405Z,57.74
2019-04-16T15:23:51.412Z,58.29
2019-04-16T15:26:53.506Z,58.00
2019-04-16T15:29:32.875Z,58.64
2019-04-16T15:32:23.892Z,59.06
2019-04-16T15:34:54.765Z,59.29
2019-04-16T15:37:34.075Z,59.39
2019-04-16T15:40:09.712Z,60.29
2019-04-16T15:43:11.473Z,60.56
2019-04-16T15:46:26.270Z,60.26
2019-04-16T15:48:59.729Z,60.40
2019-04-16T15:51:58.373Z,61.55
2019-04-16T15:54:55.011Z,61.65
2019-04-16T15:57:50.891Z,62.64
2019-04-16T16:00:52.266Z,62.64
2019-04-16T16:03:51.061Z,62.51
2019-04-16T16:06:24.105Z,62.54
2019-04-16T16:09:07.474Z,62.38
2019-04-16T16:11:57.544Z,63.01
2019-04-16T16:14:33.150Z,63.13
2019-04-16T16:17:00.735Z,63.39
2019-04-16T16:19:31.195Z,63.95
2019-04-16T16:22:01.739Z,64.17
2019-04-16T16:24:35.909Z,64.44
2019-04-16T16:27:05.803Z,64.54
2019-04-16T16:29:36.779Z,64.43
2019-04-16T16:32:07.673Z,64.50
2019-04-16T16:34:38.578Z,64.61
2019-04-16T16:37:10.447Z,64.98
2019-04-16T16:39:41.328Z,65.43
2019-04-16T16:42:11.952Z,65.83
2019-04-16T16:44:42.861Z,65.96
2019-04-16T16:47:35.064Z,66.24
2019-04-16T16:50:07.306Z,66.20
2019-04-16T16:52:50.346Z,66.64
2019-04-16T16:55:30.351Z,66.78
2019-04-16T16:58:08.036Z,67.88
2019-04-16T17:01:09.583Z,68.32
2019-04-16T17:04:00.069Z,68.32
2019-04-16T17:06:30.875Z,68.97
2019-04-16T17:09:01.747Z,69.03
2019-04-16T17:11:36.967Z,69.03
2019-04-16T17:14:12.111Z,68.89
2019-04-16T17:16:43.507Z,69.39
2019-04-16T17:19:22.456Z,69.64
2019-04-16T17:21:53.540Z,69.64
2019-04-16T17:24:31.482Z,69.83
2019-04-16T17:27:08.585Z,69.73
2019-04-16T17:29:40.933Z,70.15
2019-04-16T17:32:12.472Z,69.81
2019-04-16T17:34:43.638Z,69.81
2019-04-16T17:37:34.532Z,70.02
2019-04-16T17:40:27.005Z,69.87
2019-04-16T17:43:01.807Z,69.98
2019-04-16T17:45:58.983Z,69.98
2019-04-16T17:48:47.112Z,70.06
2019-04-16T17:51:28.821Z,70.32
2019-04-16T17:54:12.123Z,70.71
2019-04-16T17:57:00.289Z,70.71
2019-04-16T17:59:44.334Z,70.62
2019-04-16T18:02:32.883Z,70.62
2019-04-16T18:05:40.895Z,71.40
2019-04-16T18:08:30.463Z,71.40
2019-04-16T18:11:10.833Z,72.00
2019-04-16T18:14:16.387Z,72.24
2019-04-16T18:17:01.621Z,72.55
2019-04-16T18:19:50.124Z,72.28
2019-04-16T18:22:29.005Z,72.53
2019-04-16T18:25:12.041Z,72.53
2019-04-16T18:28:06.757Z,72.69
2019-04-16T18:30:50.316Z,72.36
2019-04-16T18:33:43.215Z,72.36
2019-04-16T18:36:32.058Z,72.80
2019-04-16T18:39:44.273Z,72.79
2019-04-16T18:42:37.847Z,72.83
2019-04-16T18:45:29.118Z,72.83
2019-04-16T18:48:18.364Z,73.15
2019-04-16T18:50:59.925Z,73.15
2019-04-16T18:53:40.195Z,72.97
2019-04-16T18:56:11.411Z,73.15
2019-04-16T18:58:47.566Z,73.32
2019-04-16T19:01:33.925Z,73.75
2019-04-16T19:04:09.043Z,74.10
2019-04-16T19:06:39.529Z,74.39
2019-04-16T19:09:10.366Z,74.56
2019-04-16T19:11:42.143Z,74.75
2019-04-16T19:14:14.947Z,74.60
2019-04-16T19:16:45.856Z,74.79
2019-04-16T19:19:17.105Z,75.30
2019-04-16T19:21:51.327Z,75.52
2019-04-16T19:24:20.328Z,75.99
2019-04-16T19:26:50.963Z,76.09
2019-04-16T19:29:22.123Z,76.45
2019-04-16T19:31:56.455Z,77.06
2019-04-16T19:34:25.106Z,77.42
2019-04-16T19:36:59.077Z,77.77
2019-04-16T19:39:28.220Z,78.07
2019-04-16T19:41:59.914Z,78.33
2019-04-16T19:44:33.465Z,78.80
2019-04-16T19:47:02.794Z,79.14
2019-04-16T19:49:33.567Z,80.18
2019-04-16T19:52:04.329Z,81.63
2019-04-16T19:54:35.202Z,82.44
2019-04-16T19:57:05.980Z,82.40
2019-04-16T19:59:36.741Z,82.57
2019-04-16T20:02:08.980Z,82.42
2019-04-16T20:04:41.463Z,82.04
2019-04-16T20:07:11.868Z,81.61
2019-04-16T20:09:42.645Z,81.10
2019-04-16T20:12:13.289Z,81.13
2019-04-16T20:14:44.414Z,81.04
2019-04-16T20:17:16.442Z,80.99
2019-04-16T20:19:59.453Z,80.88
2019-04-16T20:22:32.165Z,80.90
2019-04-16T20:25:03.361Z,80.74
2019-04-16T20:27:36.269Z,80.59
2019-04-16T20:30:07.192Z,80.65
2019-04-16T20:32:37.913Z,80.72
2019-04-16T20:35:10.038Z,80.67
2019-04-16T20:37:40.690Z,80.80
2019-04-16T20:40:14.671Z,80.69
2019-04-16T20:42:44.602Z,80.60
2019-04-16T20:45:15.460Z,80.61
2019-04-16T20:47:46.940Z,80.40
2019-04-16T20:50:20.795Z,80.12
2019-04-16T20:52:50.523Z,79.83
2019-04-16T20:55:21.226Z,79.69
2019-04-16T20:57:55.285Z,79.35
2019-04-16T21:00:28.668Z,79.30
2019-04-16T21:03:02.563Z,79.14
2019-04-16T21:05:35.476Z,79.09
2019-04-16T21:08:04.177Z,79.12
2019-04-16T21:10:36.333Z,79.14
2019-04-16T21:13:07.966Z,79.14
2019-04-16T21:15:40.322Z,79.20
2019-04-16T21:18:12.150Z,79.04
2019-04-16T21:20:43.203Z,79.30
2019-04-16T21:23:13.872Z,79.21
2019-04-16T21:25:45.995Z,79.02
2019-04-16T21:28:43.156Z,79.20
2019-04-16T21:31:20.754Z,79.26
2019-04-16T21:34:02.222Z,79.29
2019-04-16T21:36:43.936Z,79.21
2019-04-16T21:39:27.648Z,79.19
2019-04-16T21:42:03.044Z,79.34
2019-04-16T21:44:30.899Z,79.58
2019-04-16T21:47:01.687Z,79.46
2019-04-16T21:49:38.940Z,79.45
2019-04-16T21:52:09.542Z,79.51
2019-04-16T21:54:40.401Z,79.57
2019-04-16T21:57:15.760Z,79.76
2019-04-16T21:59:50.297Z,79.82
2019-04-16T22:02:24.561Z,79.76
2019-04-16T22:04:56.706Z,79.55
2019-04-16T22:07:29.582Z,79.42
2019-04-16T22:10:01.107Z,79.41
2019-04-16T22:12:32.676Z,79.51
2019-04-16T22:15:03.376Z,79.44
2019-04-16T22:17:36.603Z,79.66
2019-04-16T22:20:09.138Z,79.66
2019-04-16T22:22:39.700Z,79.36
2019-04-16T22:25:11.081Z,79.33
2019-04-16T22:27:41.690Z,79.35
2019-04-16T22:30:12.693Z,79.43
2019-04-16T22:32:43.303Z,79.39
2019-04-16T22:35:14.274Z,79.41
2019-04-16T22:37:46.108Z,79.46
2019-04-16T22:40:41.335Z,79.37
2019-04-16T22:43:29.780Z,79.18
2019-04-16T22:46:13.629Z,78.92
2019-04-16T22:49:09.545Z,78.71
2019-04-16T22:51:43.227Z,79.00
2019-04-16T22:54:13.122Z,78.88
2019-04-16T22:57:09.719Z,79.14
2019-04-16T22:59:40.702Z,78.94
2019-04-16T23:02:18.070Z,79.17
2019-04-16T23:04:48.510Z,79.16
2019-04-16T23:07:19.343Z,79.47
2019-04-16T23:09:50.740Z,79.53
2019-04-16T23:12:21.600Z,79.79
2019-04-16T23:14:52.362Z,79.88
2019-04-16T23:17:25.830Z,79.96
2019-04-16T23:19:57.144Z,80.02
2019-04-16T23:22:27.699Z,79.89
2019-04-16T23:24:58.485Z,80.08
2019-04-16T23:27:29.083Z,80.05
2019-04-16T23:29:59.647Z,80.05
2019-04-16T23:32:30.298Z,79.99
2019-04-16T23:35:01.032Z,79.75
2019-04-16T23:37:32.901Z,79.67
2019-04-16T23:40:03.822Z,79.47
2019-04-16T23:42:36.055Z,79.24
2019-04-16T23:45:24.814Z,79.02
2019-04-16T23:48:17.169Z,79.08
2019-04-16T23:51:11.957Z,79.12
2019-04-16T23:54:01.335Z,79.17
2019-04-16T23:56:39.522Z,78.85
2019-04-16T23:59:35.861Z,78.62
